Terminal Aerodrome Forecast
Issued by NWS

Home | Current Version | Previous Version | Text Only | Print | Product List | Glossary On
Versions: 1 2 3 4 5 6 7 8 9 10 11 12 13 14
000
FTAK31 PAJN 211700
TAFAPG
TAF
PAPG 211731Z 2118/2218 VRB04KT P6SM VCSH SCT015 OVC030
     FM220200 00000KT 5SM -SHRA BCFG OVC025
      AMD LTD TO CLD VIS AND WIND 2206/2215=

USA.gov is the U.S. government's official web portal to all federal, state and local government web resources and services.